createdAt,value
2022-10-26T00:02:20.543Z,2.57
2022-10-26T00:04:49.036Z,2.90
2022-10-26T00:07:24.535Z,2.83
2022-10-26T00:09:54.341Z,3.00
2022-10-26T00:12:29.404Z,2.97
2022-10-26T00:14:57.988Z,3.10
2022-10-26T00:17:33.422Z,3.40
2022-10-26T00:20:02.476Z,3.23
2022-10-26T00:22:37.537Z,2.87
2022-10-26T00:25:08.354Z,3.20
2022-10-26T00:27:43.512Z,3.20
2022-10-26T00:30:12.337Z,3.00
2022-10-26T00:32:54.444Z,3.13
2022-10-26T00:35:29.002Z,3.13
2022-10-26T00:38:17.563Z,3.43
2022-10-26T00:40:48.274Z,3.20
2022-10-26T00:43:25.457Z,2.90
2022-10-26T00:45:56.953Z,3.10
2022-10-26T00:48:35.567Z,2.80
2022-10-26T00:51:10.164Z,2.77
2022-10-26T00:53:45.421Z,2.57
2022-10-26T00:56:15.623Z,2.83
2022-10-26T00:58:51.575Z,2.70
2022-10-26T01:01:20.111Z,2.70
2022-10-26T01:03:56.496Z,2.70
2022-10-26T01:06:25.034Z,2.50
2022-10-26T01:09:00.554Z,2.87
2022-10-26T01:11:30.795Z,2.53
2022-10-26T01:14:07.425Z,2.87
2022-10-26T01:17:00.898Z,2.57
2022-10-26T01:20:16.433Z,2.70
2022-10-26T01:22:52.687Z,2.60
2022-10-26T01:25:47.439Z,2.40
2022-10-26T01:28:30.999Z,2.30
2022-10-26T01:31:10.594Z,2.50
2022-10-26T01:33:49.888Z,2.50
2022-10-26T01:36:30.488Z,2.40
2022-10-26T01:39:05.163Z,2.57
2022-10-26T01:41:44.461Z,2.90
2022-10-26T01:44:22.867Z,2.63
2022-10-26T01:47:02.437Z,2.60
2022-10-26T01:49:35.431Z,2.60
2022-10-26T01:52:10.603Z,2.80
2022-10-26T01:54:39.237Z,2.70
2022-10-26T01:57:17.461Z,2.70
2022-10-26T02:00:11.005Z,2.60
2022-10-26T02:03:11.472Z,2.60
2022-10-26T02:05:55.943Z,2.50
2022-10-26T02:08:57.673Z,2.33
2022-10-26T02:11:38.025Z,2.60
2022-10-26T02:14:21.644Z,2.93
2022-10-26T02:17:04.119Z,2.60
2022-10-26T02:19:49.471Z,2.60
2022-10-26T02:22:23.496Z,2.67
2022-10-26T02:25:00.640Z,2.93
2022-10-26T02:27:32.858Z,2.67
2022-10-26T02:30:10.478Z,2.50
2022-10-26T02:32:49.365Z,2.67
2022-10-26T02:35:29.517Z,2.17
2022-10-26T02:38:01.289Z,2.40
2022-10-26T02:40:37.553Z,2.70
2022-10-26T02:43:09.722Z,2.30
2022-10-26T02:45:51.604Z,2.20
2022-10-26T02:48:20.676Z,2.50
2022-10-26T02:51:06.551Z,2.10
2022-10-26T02:53:48.545Z,2.27
2022-10-26T02:56:23.006Z,2.37
2022-10-26T02:59:01.851Z,2.30
2022-10-26T03:01:31.179Z,2.27
2022-10-26T03:04:06.722Z,2.33
2022-10-26T03:06:36.556Z,2.40
2022-10-26T03:09:11.584Z,2.43
2022-10-26T03:11:40.031Z,2.40
2022-10-26T03:14:14.544Z,2.40
2022-10-26T03:16:43.679Z,2.33
2022-10-26T03:19:18.744Z,2.40
2022-10-26T03:21:49.029Z,2.13
2022-10-26T03:24:23.584Z,2.43
2022-10-26T03:26:51.997Z,2.33
2022-10-26T03:29:26.526Z,2.27
2022-10-26T03:32:02.050Z,2.10
2022-10-26T03:34:42.775Z,2.37
2022-10-26T03:37:12.736Z,2.13
2022-10-26T03:39:47.580Z,2.03
2022-10-26T03:42:16.229Z,1.97
2022-10-26T03:44:51.585Z,1.90
2022-10-26T03:47:19.953Z,1.97
2022-10-26T03:49:54.767Z,1.77
2022-10-26T03:52:24.841Z,1.60
2022-10-26T03:55:00.778Z,2.13
2022-10-26T03:57:29.182Z,1.70
2022-10-26T04:00:04.655Z,1.90
2022-10-26T04:02:33.077Z,1.90
2022-10-26T04:05:07.752Z,1.90
2022-10-26T04:07:37.511Z,1.67
2022-10-26T04:10:13.714Z,1.83
2022-10-26T04:12:42.177Z,1.87
2022-10-26T04:15:17.654Z,1.60
2022-10-26T04:17:46.534Z,1.77
2022-10-26T04:20:22.753Z,1.90
2022-10-26T04:22:58.990Z,1.70
2022-10-26T04:25:34.702Z,1.67
2022-10-26T04:28:04.693Z,1.57
2022-10-26T04:30:39.593Z,1.53
2022-10-26T04:33:15.112Z,1.70
2022-10-26T04:35:52.645Z,1.57
2022-10-26T04:38:22.440Z,1.80
2022-10-26T04:40:59.607Z,1.30
2022-10-26T04:43:28.063Z,1.37
2022-10-26T04:46:03.645Z,1.73
2022-10-26T04:48:32.157Z,1.50
2022-10-26T04:51:07.678Z,1.43
2022-10-26T04:53:37.620Z,1.33
2022-10-26T04:56:12.762Z,1.33
2022-10-26T04:58:41.170Z,1.27
2022-10-26T05:01:16.705Z,1.57
2022-10-26T05:03:45.150Z,1.53
2022-10-26T05:06:19.672Z,1.40
2022-10-26T05:08:50.038Z,1.50
2022-10-26T05:11:24.711Z,1.50
2022-10-26T05:13:53.222Z,1.33
2022-10-26T05:16:28.699Z,1.50
2022-10-26T05:18:57.119Z,1.53
2022-10-26T05:21:31.614Z,1.50
2022-10-26T05:24:01.740Z,1.20
2022-10-26T05:26:36.715Z,1.43
2022-10-26T05:29:05.188Z,1.40
2022-10-26T05:31:39.710Z,1.10
2022-10-26T05:34:20.991Z,1.30
2022-10-26T05:36:55.679Z,1.30
2022-10-26T05:39:25.571Z,1.53
2022-10-26T05:42:00.742Z,1.67
2022-10-26T05:44:29.048Z,1.60
2022-10-26T05:47:03.719Z,1.50
2022-10-26T05:49:32.297Z,1.43
2022-10-26T05:52:07.707Z,1.40
2022-10-26T05:54:37.526Z,1.40
2022-10-26T05:57:12.681Z,1.33
2022-10-26T05:59:41.641Z,1.73
2022-10-26T06:02:25.790Z,1.63
2022-10-26T06:04:58.524Z,1.90
2022-10-26T06:07:33.620Z,1.63
2022-10-26T06:10:04.518Z,1.87
2022-10-26T06:12:39.687Z,1.53
2022-10-26T06:15:09.374Z,1.77
2022-10-26T06:17:53.710Z,1.53
2022-10-26T06:20:46.120Z,1.27
2022-10-26T06:23:39.909Z,1.23
2022-10-26T06:26:16.601Z,1.80
2022-10-26T06:29:01.955Z,1.87
2022-10-26T06:31:30.850Z,1.60
2022-10-26T06:34:08.765Z,1.60
2022-10-26T06:36:38.052Z,1.80
2022-10-26T06:39:16.765Z,2.00
2022-10-26T06:41:47.318Z,2.03
2022-10-26T06:44:29.787Z,1.60
2022-10-26T06:47:06.418Z,1.53
2022-10-26T06:49:44.725Z,1.90
2022-10-26T06:52:18.520Z,1.90
2022-10-26T06:54:58.946Z,1.80
2022-10-26T06:57:35.986Z,1.83
2022-10-26T07:00:14.801Z,1.70
2022-10-26T07:02:43.259Z,1.80
2022-10-26T07:05:19.730Z,1.87
2022-10-26T07:07:49.622Z,1.80
2022-10-26T07:10:24.868Z,1.80
2022-10-26T07:12:54.872Z,1.80
2022-10-26T07:15:29.792Z,1.93
2022-10-26T07:17:58.347Z,1.70
2022-10-26T07:20:32.850Z,1.80
2022-10-26T07:23:01.494Z,1.70
2022-10-26T07:25:36.925Z,2.00
2022-10-26T07:28:16.006Z,2.33
2022-10-26T07:30:44.461Z,1.90
2022-10-26T07:33:26.831Z,1.83
2022-10-26T07:36:02.164Z,2.07
2022-10-26T07:38:36.804Z,2.17
2022-10-26T07:41:06.507Z,2.20
2022-10-26T07:43:42.750Z,2.20
2022-10-26T07:46:11.186Z,2.10
2022-10-26T07:48:46.937Z,2.00
2022-10-26T07:51:15.395Z,2.13
2022-10-26T07:53:51.126Z,2.57
2022-10-26T07:56:19.554Z,2.10
2022-10-26T07:58:55.877Z,2.00
2022-10-26T08:01:24.207Z,2.20
2022-10-26T08:04:00.866Z,2.33
2022-10-26T08:06:29.540Z,1.97
2022-10-26T08:09:04.879Z,2.00
2022-10-26T08:11:33.951Z,2.20
2022-10-26T08:14:10.875Z,1.97
2022-10-26T08:16:41.064Z,1.90
2022-10-26T08:19:15.883Z,2.20
2022-10-26T08:21:44.411Z,2.10
2022-10-26T08:24:18.871Z,2.20
2022-10-26T08:26:47.539Z,2.80
2022-10-26T08:29:24.060Z,1.90
2022-10-26T08:31:58.275Z,2.20
2022-10-26T08:34:43.006Z,2.20
2022-10-26T08:37:11.602Z,2.23
2022-10-26T08:39:49.161Z,2.30
2022-10-26T08:42:24.447Z,2.10
2022-10-26T08:45:05.830Z,2.03
2022-10-26T08:47:39.650Z,2.07
2022-10-26T08:50:22.911Z,1.97
2022-10-26T08:52:55.330Z,2.00
2022-10-26T08:55:45.839Z,2.17
2022-10-26T08:58:17.772Z,2.07
2022-10-26T09:00:57.917Z,1.77
2022-10-26T09:03:26.900Z,1.90
2022-10-26T09:06:21.036Z,1.93
2022-10-26T09:09:02.409Z,1.80
2022-10-26T09:11:50.919Z,1.60
2022-10-26T09:14:26.290Z,1.80
2022-10-26T09:17:10.929Z,2.00
2022-10-26T09:20:17.790Z,1.90
2022-10-26T09:23:02.060Z,2.30
2022-10-26T09:25:37.290Z,1.97
2022-10-26T09:28:12.965Z,2.00
2022-10-26T09:30:41.530Z,1.80
2022-10-26T09:33:23.933Z,1.97
2022-10-26T09:36:02.495Z,1.50
2022-10-26T09:38:40.072Z,1.73
2022-10-26T09:41:17.617Z,1.67
2022-10-26T09:43:58.079Z,1.70
2022-10-26T09:46:31.734Z,1.57
2022-10-26T09:49:11.897Z,1.60
2022-10-26T09:51:43.170Z,1.60
2022-10-26T09:54:23.058Z,1.60
2022-10-26T09:56:55.719Z,1.50
2022-10-26T09:59:33.052Z,1.60
2022-10-26T10:02:01.667Z,1.43
2022-10-26T10:04:40.867Z,1.40
2022-10-26T10:07:19.214Z,1.30
2022-10-26T10:10:19.952Z,1.60
2022-10-26T10:12:52.833Z,1.50
2022-10-26T10:15:30.069Z,1.50
2022-10-26T10:18:00.951Z,1.60
2022-10-26T10:20:41.040Z,1.60
2022-10-26T10:23:30.516Z,1.43
2022-10-26T10:26:18.098Z,1.17
2022-10-26T10:28:59.046Z,1.40
2022-10-26T10:31:38.985Z,1.40
2022-10-26T10:34:18.251Z,1.13
2022-10-26T10:36:54.929Z,1.30
2022-10-26T10:39:37.398Z,1.20
2022-10-26T10:42:15.125Z,1.20
2022-10-26T10:44:46.172Z,1.60
2022-10-26T10:47:30.225Z,1.30
2022-10-26T10:50:02.918Z,1.23
2022-10-26T10:52:50.650Z,1.40
2022-10-26T10:55:31.148Z,1.30
2022-10-26T10:58:09.471Z,1.37
2022-10-26T11:00:47.738Z,1.20
2022-10-26T11:03:35.063Z,1.20
2022-10-26T11:06:19.128Z,1.20
2022-10-26T11:08:52.204Z,1.07
2022-10-26T11:11:31.147Z,1.20
2022-10-26T11:14:06.661Z,1.10
2022-10-26T11:16:45.966Z,1.30
2022-10-26T11:19:21.457Z,1.10
2022-10-26T11:22:01.010Z,1.30
2022-10-26T11:24:35.335Z,1.27
2022-10-26T11:27:17.229Z,1.10
2022-10-26T11:29:51.653Z,1.20
2022-10-26T11:32:31.174Z,1.40
2022-10-26T11:35:12.203Z,1.20
2022-10-26T11:37:53.044Z,1.20
2022-10-26T11:40:31.436Z,1.20
2022-10-26T11:43:15.070Z,1.20
2022-10-26T11:45:45.747Z,1.00
2022-10-26T11:48:25.019Z,1.20
2022-10-26T11:50:58.103Z,1.30
2022-10-26T11:53:36.037Z,1.23
2022-10-26T11:56:11.481Z,1.40
2022-10-26T11:58:48.047Z,1.23
2022-10-26T12:01:23.509Z,1.10
2022-10-26T12:04:02.049Z,1.33
2022-10-26T12:06:33.822Z,1.17
2022-10-26T12:09:14.130Z,1.47
2022-10-26T12:11:48.267Z,1.17
2022-10-26T12:14:30.109Z,1.07
2022-10-26T12:17:05.313Z,1.20
2022-10-26T12:19:46.074Z,1.40
2022-10-26T12:22:17.637Z,1.10
2022-10-26T12:24:54.230Z,1.30
2022-10-26T12:27:53.066Z,1.57
2022-10-26T12:30:35.103Z,1.40
2022-10-26T12:33:44.092Z,1.30
2022-10-26T12:36:52.034Z,1.30
2022-10-26T12:39:32.156Z,1.30
2022-10-26T12:42:18.207Z,1.00
2022-10-26T12:45:16.190Z,1.40
2022-10-26T12:48:27.755Z,1.30
2022-10-26T12:51:21.692Z,1.33
2022-10-26T12:54:01.136Z,1.20
2022-10-26T12:56:35.986Z,1.10
2022-10-26T12:59:30.149Z,1.53
2022-10-26T13:02:30.265Z,1.20
2022-10-26T13:05:39.128Z,1.60
2022-10-26T13:08:09.783Z,1.30
2022-10-26T13:10:48.125Z,1.27
2022-10-26T13:13:23.606Z,1.30
2022-10-26T13:16:03.261Z,1.13
2022-10-26T13:18:33.331Z,1.20
2022-10-26T13:21:14.249Z,1.30
2022-10-26T13:23:44.791Z,1.27
2022-10-26T13:26:21.310Z,1.00
2022-10-26T13:28:52.183Z,1.50
2022-10-26T13:32:04.108Z,1.23
2022-10-26T13:34:44.155Z,1.20
2022-10-26T13:37:28.273Z,1.70
2022-10-26T13:39:57.652Z,1.10
2022-10-26T13:45:07.937Z,1.50
2022-10-26T13:47:51.670Z,1.43
2022-10-26T13:50:28.767Z,1.47
2022-10-26T13:53:10.277Z,1.20
2022-10-26T13:55:45.616Z,1.30
2022-10-26T13:58:28.159Z,1.43
2022-10-26T14:01:13.514Z,1.40
2022-10-26T14:03:50.261Z,1.50
2022-10-26T14:06:27.675Z,1.43
2022-10-26T14:09:06.174Z,1.40
2022-10-26T14:11:38.493Z,1.27
2022-10-26T14:14:13.145Z,1.60
2022-10-26T14:16:46.823Z,1.20
2022-10-26T14:19:24.154Z,1.33
2022-10-26T14:21:54.686Z,1.27
2022-10-26T14:24:46.142Z,1.30
2022-10-26T14:27:18.160Z,1.47
2022-10-26T14:32:41.550Z,1.13
2022-10-26T14:35:27.147Z,1.40
2022-10-26T14:38:00.228Z,1.20
2022-10-26T14:40:38.276Z,1.50
2022-10-26T14:43:07.812Z,1.50
2022-10-26T14:45:49.492Z,1.10
2022-10-26T14:48:31.921Z,1.27
2022-10-26T14:51:14.225Z,1.30
2022-10-26T14:53:50.942Z,1.37
2022-10-26T14:56:31.349Z,1.50
2022-10-26T14:59:00.785Z,1.20
2022-10-26T15:01:39.376Z,1.50
2022-10-26T15:04:08.826Z,1.53
2022-10-26T15:09:47.492Z,1.40
2022-10-26T15:12:33.212Z,1.60
2022-10-26T15:15:12.545Z,1.40
2022-10-26T15:17:50.458Z,1.43
2022-10-26T15:20:21.744Z,1.50
2022-10-26T15:23:01.676Z,1.60
2022-10-26T15:25:34.287Z,1.67
2022-10-26T15:28:18.292Z,1.37
2022-10-26T15:31:01.510Z,1.73
2022-10-26T15:33:36.248Z,1.40
2022-10-26T15:36:16.301Z,1.40
2022-10-26T15:38:52.258Z,1.70
2022-10-26T15:41:25.354Z,1.47
2022-10-26T15:44:03.406Z,1.20
2022-10-26T15:46:34.258Z,1.37
2022-10-26T15:49:12.239Z,1.50
2022-10-26T15:51:40.670Z,1.50
2022-10-26T15:54:17.435Z,1.67
2022-10-26T15:56:47.881Z,1.60
2022-10-26T15:59:25.283Z,1.77
2022-10-26T16:01:54.128Z,1.60
2022-10-26T16:04:29.283Z,1.63
2022-10-26T16:07:01.597Z,2.03
2022-10-26T16:09:36.231Z,2.10
2022-10-26T16:12:06.393Z,4.20
2022-10-26T16:15:03.793Z,2.17
2022-10-26T16:17:36.328Z,1.50
2022-10-26T16:20:08.899Z,1.77
2022-10-26T16:22:44.252Z,1.60
2022-10-26T16:25:12.691Z,1.83
2022-10-26T16:27:49.275Z,1.80
2022-10-26T16:30:18.127Z,1.77
2022-10-26T16:32:53.437Z,2.00
2022-10-26T16:35:29.000Z,2.07
2022-10-26T16:38:04.362Z,2.03
2022-10-26T16:40:32.834Z,2.20
2022-10-26T16:43:09.297Z,2.27
2022-10-26T16:45:40.535Z,2.37
2022-10-26T16:48:21.232Z,2.43
2022-10-26T16:50:49.700Z,2.60
2022-10-26T16:53:24.339Z,2.60
2022-10-26T16:55:52.726Z,2.13
2022-10-26T16:58:29.332Z,2.30
2022-10-26T17:00:57.920Z,1.87
2022-10-26T17:03:33.469Z,2.07
2022-10-26T17:06:03.173Z,1.63
2022-10-26T17:08:40.302Z,1.70
2022-10-26T17:11:10.331Z,1.83
2022-10-26T17:13:47.619Z,1.73
2022-10-26T17:16:18.642Z,1.90
2022-10-26T17:18:54.331Z,1.70
2022-10-26T17:21:30.390Z,2.00
2022-10-26T17:24:05.354Z,2.17
2022-10-26T17:26:34.038Z,1.83
2022-10-26T17:31:43.881Z,1.90
2022-10-26T17:34:26.418Z,1.70
2022-10-26T17:36:56.105Z,1.93
2022-10-26T17:39:31.325Z,2.07
2022-10-26T17:41:59.875Z,2.20
2022-10-26T17:44:36.285Z,2.10
2022-10-26T17:47:04.638Z,2.00
2022-10-26T17:49:39.288Z,2.10
2022-10-26T17:52:07.762Z,1.83
2022-10-26T17:54:42.526Z,1.80
2022-10-26T17:57:10.722Z,1.80
2022-10-26T17:59:47.374Z,1.63
2022-10-26T18:02:15.881Z,1.90
2022-10-26T18:04:52.421Z,2.50
2022-10-26T18:07:20.986Z,2.20
2022-10-26T18:09:58.864Z,2.23
2022-10-26T18:12:33.303Z,2.50
2022-10-26T18:15:09.522Z,2.50
2022-10-26T18:17:37.917Z,2.70
2022-10-26T18:20:13.518Z,2.20
2022-10-26T18:22:41.822Z,2.43
2022-10-26T18:25:17.396Z,2.50
2022-10-26T18:27:45.821Z,2.10
2022-10-26T18:30:22.342Z,2.00
2022-10-26T18:32:51.705Z,2.00
2022-10-26T18:35:33.765Z,1.83
2022-10-26T18:38:08.870Z,2.20
2022-10-26T18:40:45.714Z,1.90
2022-10-26T18:43:16.376Z,1.77
2022-10-26T18:45:54.390Z,2.10
2022-10-26T18:48:22.928Z,1.70
2022-10-26T18:50:58.404Z,2.40
2022-10-26T18:53:26.857Z,1.80
2022-10-26T18:56:07.384Z,1.90
2022-10-26T18:58:37.222Z,1.93
2022-10-26T19:01:18.636Z,1.90
2022-10-26T19:03:48.356Z,1.80
2022-10-26T19:06:25.442Z,2.00
2022-10-26T19:08:54.731Z,2.47
2022-10-26T19:11:31.496Z,2.10
2022-10-26T19:14:00.106Z,2.20
2022-10-26T19:16:47.874Z,2.47
2022-10-26T19:19:17.367Z,2.27
2022-10-26T19:21:53.470Z,2.00
2022-10-26T19:24:23.504Z,2.30
2022-10-26T19:27:00.483Z,2.43
2022-10-26T19:29:35.463Z,2.10
2022-10-26T19:32:05.474Z,2.10
2022-10-26T19:34:46.431Z,2.60
2022-10-26T19:37:23.677Z,2.23
2022-10-26T19:40:00.521Z,2.23
2022-10-26T19:42:28.976Z,2.20
2022-10-26T19:45:04.492Z,2.57
2022-10-26T19:47:34.485Z,2.17
2022-10-26T19:50:09.542Z,2.20
2022-10-26T19:52:38.066Z,2.27
2022-10-26T19:55:13.472Z,2.43
2022-10-26T19:57:42.681Z,2.43
2022-10-26T20:00:18.668Z,2.30
2022-10-26T20:02:49.664Z,2.80
2022-10-26T20:05:25.512Z,2.33
2022-10-26T20:07:54.243Z,2.73
2022-10-26T20:10:29.637Z,2.50
2022-10-26T20:12:58.033Z,2.43
2022-10-26T20:15:33.709Z,2.30
2022-10-26T20:18:03.571Z,2.60
2022-10-26T20:20:40.552Z,2.53
2022-10-26T20:23:10.501Z,2.23
2022-10-26T20:25:46.547Z,1.93
2022-10-26T20:28:16.066Z,2.20
2022-10-26T20:30:51.529Z,2.60
2022-10-26T20:33:21.443Z,2.07
2022-10-26T20:36:02.668Z,2.40
2022-10-26T20:38:31.619Z,2.60
2022-10-26T20:41:09.981Z,2.70
2022-10-26T20:43:40.839Z,2.67
2022-10-26T20:46:18.567Z,2.40
2022-10-26T20:48:49.891Z,2.30
2022-10-26T20:51:28.551Z,2.20
2022-10-26T20:54:06.708Z,2.50
2022-10-26T20:56:42.525Z,1.70
2022-10-26T20:59:22.114Z,2.40
2022-10-26T21:01:56.752Z,2.10
2022-10-26T21:04:26.820Z,2.53
2022-10-26T21:07:02.205Z,2.50
2022-10-26T21:09:34.160Z,2.20
2022-10-26T21:12:11.594Z,2.10
2022-10-26T21:14:41.071Z,2.53
2022-10-26T21:17:16.575Z,2.40
2022-10-26T21:19:46.542Z,2.33
2022-10-26T21:22:22.591Z,2.70
2022-10-26T21:24:51.465Z,2.50
2022-10-26T21:27:26.702Z,2.40
2022-10-26T21:29:55.238Z,2.60
2022-10-26T21:32:30.636Z,3.13
2022-10-26T21:35:07.859Z,2.60
2022-10-26T21:37:42.720Z,2.53
2022-10-26T21:40:12.554Z,2.67
2022-10-26T21:42:47.638Z,2.60
2022-10-26T21:45:16.278Z,2.50
2022-10-26T21:47:51.808Z,2.43
2022-10-26T21:50:22.064Z,2.80
2022-10-26T21:53:00.713Z,2.77
2022-10-26T21:55:29.071Z,2.70
2022-10-26T21:58:03.605Z,2.57
2022-10-26T22:00:32.034Z,2.70
2022-10-26T22:03:06.572Z,2.70
2022-10-26T22:05:37.261Z,2.50
2022-10-26T22:08:12.604Z,2.73
2022-10-26T22:10:41.050Z,2.40
2022-10-26T22:13:15.685Z,2.50
2022-10-26T22:15:44.176Z,2.33
2022-10-26T22:18:19.855Z,1.97
2022-10-26T22:20:59.439Z,2.57
2022-10-26T22:23:34.765Z,2.40
2022-10-26T22:26:04.709Z,2.20
2022-10-26T22:28:42.845Z,2.33
2022-10-26T22:31:13.953Z,2.20
2022-10-26T22:33:48.667Z,2.00
2022-10-26T22:36:25.507Z,2.50
2022-10-26T22:39:01.691Z,2.23
2022-10-26T22:41:30.235Z,2.50
2022-10-26T22:44:05.798Z,2.17
2022-10-26T22:46:34.294Z,2.20
2022-10-26T22:49:10.605Z,2.23
2022-10-26T22:51:40.485Z,2.40
2022-10-26T22:54:15.669Z,2.20
2022-10-26T22:56:44.102Z,2.30
2022-10-26T22:59:18.800Z,2.37
2022-10-26T23:01:47.280Z,2.00
2022-10-26T23:04:22.661Z,2.33
2022-10-26T23:06:52.664Z,2.60
2022-10-26T23:09:27.691Z,2.60
2022-10-26T23:11:56.517Z,2.40
2022-10-26T23:14:31.835Z,2.50
2022-10-26T23:17:00.387Z,2.67
2022-10-26T23:19:35.839Z,2.50
2022-10-26T23:22:05.995Z,2.57
2022-10-26T23:24:40.659Z,2.37
2022-10-26T23:27:09.615Z,2.70
2022-10-26T23:32:39.657Z,2.80
2022-10-26T23:35:15.154Z,2.87
2022-10-26T23:37:51.675Z,2.50
2022-10-26T23:40:20.073Z,2.53
2022-10-26T23:42:55.888Z,2.00
2022-10-26T23:45:24.695Z,2.50
2022-10-26T23:47:59.910Z,2.40
2022-10-26T23:50:28.724Z,2.70
2022-10-26T23:53:04.684Z,2.40
2022-10-26T23:55:33.550Z,2.03
2022-10-26T23:58:08.892Z,2.77
